createdAt,value
2022-09-21T00:01:13.239Z,6.00
2022-09-21T00:03:43.816Z,6.00
2022-09-21T00:06:13.360Z,6.00
2022-09-21T00:08:40.434Z,5.90
2022-09-21T00:11:08.675Z,5.90
2022-09-21T00:13:37.741Z,5.90
2022-09-21T00:16:09.111Z,5.90
2022-09-21T00:18:36.979Z,5.90
2022-09-21T00:21:12.867Z,5.90
2022-09-21T00:23:40.344Z,5.80
2022-09-21T00:26:10.036Z,5.80
2022-09-21T00:28:37.846Z,5.80
2022-09-21T00:31:07.068Z,5.80
2022-09-21T00:33:34.323Z,5.80
2022-09-21T00:36:09.193Z,5.80
2022-09-21T00:38:37.061Z,5.70
2022-09-21T00:41:05.244Z,5.70
2022-09-21T00:43:37.111Z,5.80
2022-09-21T00:46:07.185Z,5.70
2022-09-21T00:48:33.898Z,5.70
2022-09-21T00:51:06.168Z,5.70
2022-09-21T00:53:32.953Z,5.70
2022-09-21T00:56:02.609Z,5.70
2022-09-21T00:58:33.821Z,5.70
2022-09-21T01:01:01.234Z,5.70
2022-09-21T01:03:29.880Z,5.60
2022-09-21T01:05:57.050Z,5.60
2022-09-21T01:08:26.436Z,5.60
2022-09-21T01:11:02.256Z,5.60
2022-09-21T01:13:41.343Z,5.60
2022-09-21T01:16:36.086Z,5.60
2022-09-21T01:19:40.046Z,5.50
2022-09-21T01:22:34.908Z,5.60
2022-09-21T01:25:14.149Z,5.50
2022-09-21T01:27:53.855Z,5.50
2022-09-21T01:30:22.446Z,5.50
2022-09-21T01:33:15.923Z,5.40
2022-09-21T01:35:50.357Z,5.40
2022-09-21T01:38:23.301Z,5.40
2022-09-21T01:40:55.367Z,5.40
2022-09-21T01:43:31.917Z,5.40
2022-09-21T01:46:02.089Z,5.30
2022-09-21T01:48:31.924Z,5.30
2022-09-21T01:51:02.087Z,5.30
2022-09-21T01:53:38.504Z,5.30
2022-09-21T01:56:11.061Z,5.30
2022-09-21T01:58:46.105Z,5.30
2022-09-21T02:01:17.386Z,5.30
2022-09-21T02:03:52.117Z,5.30
2022-09-21T02:06:19.759Z,5.20
2022-09-21T02:08:46.848Z,5.30
2022-09-21T02:11:14.109Z,5.20
2022-09-21T02:13:45.842Z,5.20
2022-09-21T02:16:40.567Z,5.20
2022-09-21T02:19:44.507Z,5.20
2022-09-21T02:22:32.000Z,5.20
2022-09-21T02:25:09.204Z,5.20
2022-09-21T02:27:47.750Z,5.20
2022-09-21T02:30:20.602Z,5.20
2022-09-21T02:32:51.313Z,5.10
2022-09-21T02:35:38.587Z,5.10
2022-09-21T02:38:35.733Z,5.10
2022-09-21T02:41:13.814Z,5.10
2022-09-21T02:43:59.139Z,5.10
2022-09-21T02:46:34.481Z,5.10
2022-09-21T02:49:07.350Z,5.10
2022-09-21T02:51:38.836Z,5.10
2022-09-21T02:54:08.463Z,5.10
2022-09-21T02:56:36.841Z,5.00
2022-09-21T02:59:05.628Z,5.00
2022-09-21T03:01:34.114Z,5.00
2022-09-21T03:04:01.068Z,5.00
2022-09-21T03:06:27.760Z,5.00
2022-09-21T03:08:54.467Z,5.00
2022-09-21T03:11:21.039Z,5.00
2022-09-21T03:13:47.710Z,4.90
2022-09-21T03:16:14.612Z,4.90
2022-09-21T03:18:44.040Z,4.90
2022-09-21T03:21:12.216Z,4.90
2022-09-21T03:23:39.537Z,4.90
2022-09-21T03:26:06.389Z,4.90
2022-09-21T03:28:32.973Z,4.90
2022-09-21T03:30:59.857Z,4.90
2022-09-21T03:33:26.603Z,4.90
2022-09-21T03:35:53.494Z,4.80
2022-09-21T03:38:21.586Z,4.80
2022-09-21T03:40:49.241Z,4.80
2022-09-21T03:43:16.891Z,4.80
2022-09-21T03:45:44.351Z,4.80
2022-09-21T03:48:12.609Z,4.80
2022-09-21T03:50:39.786Z,4.80
2022-09-21T03:53:06.793Z,4.80
2022-09-21T03:55:33.583Z,4.80
2022-09-21T03:58:00.473Z,4.80
2022-09-21T04:00:27.186Z,4.90
2022-09-21T04:02:54.059Z,4.90
2022-09-21T04:05:20.855Z,5.00
2022-09-21T04:07:48.063Z,5.10
2022-09-21T04:10:18.106Z,5.10
2022-09-21T04:12:45.968Z,5.10
2022-09-21T04:15:15.245Z,5.20
2022-09-21T04:17:42.021Z,5.20
2022-09-21T04:20:09.438Z,5.30
2022-09-21T04:22:39.947Z,5.20
2022-09-21T04:25:10.722Z,5.30
2022-09-21T04:27:37.526Z,5.30
2022-09-21T04:30:05.204Z,5.30
2022-09-21T04:32:31.916Z,5.20
2022-09-21T04:34:58.625Z,5.20
2022-09-21T04:37:25.385Z,5.20
2022-09-21T04:39:52.051Z,5.20
2022-09-21T04:42:19.115Z,5.20
2022-09-21T04:44:45.909Z,5.20
2022-09-21T04:47:12.503Z,5.20
2022-09-21T04:49:39.100Z,5.20
2022-09-21T04:52:06.021Z,5.20
2022-09-21T04:54:32.741Z,5.20
2022-09-21T04:56:59.386Z,5.30
2022-09-21T04:59:26.044Z,5.30
2022-09-21T05:01:52.821Z,5.30
2022-09-21T05:04:19.528Z,5.30
2022-09-21T05:06:46.148Z,5.30
2022-09-21T05:09:31.175Z,5.30
2022-09-21T05:11:58.020Z,5.30
2022-09-21T05:14:24.665Z,5.30
2022-09-21T05:16:51.321Z,5.30
2022-09-21T05:19:18.152Z,5.30
2022-09-21T05:21:44.999Z,5.40
2022-09-21T05:24:11.576Z,5.40
2022-09-21T05:26:38.543Z,5.40
2022-09-21T05:29:05.553Z,5.40
2022-09-21T05:31:46.039Z,5.40
2022-09-21T05:34:39.126Z,5.40
2022-09-21T05:37:49.995Z,5.50
2022-09-21T05:40:17.036Z,5.50
2022-09-21T05:42:44.623Z,5.50
2022-09-21T05:45:17.864Z,5.50
2022-09-21T05:48:00.236Z,5.60
2022-09-21T05:50:57.267Z,5.60
2022-09-21T05:53:45.199Z,5.60
2022-09-21T05:56:33.251Z,5.70
2022-09-21T05:59:21.060Z,5.70
2022-09-21T06:02:16.649Z,5.70
2022-09-21T06:04:43.710Z,5.80
2022-09-21T06:07:10.295Z,5.90
2022-09-21T06:09:41.162Z,5.90
2022-09-21T06:12:11.571Z,6.00
2022-09-21T06:14:38.565Z,6.10
2022-09-21T06:17:05.207Z,6.20
2022-09-21T06:19:31.839Z,6.40
2022-09-21T06:21:58.538Z,6.50
2022-09-21T06:24:25.355Z,6.60
2022-09-21T06:26:52.113Z,6.80
2022-09-21T06:29:23.419Z,6.90
2022-09-21T06:31:51.302Z,7.10
2022-09-21T06:34:18.773Z,7.30
2022-09-21T06:36:48.297Z,7.50
2022-09-21T06:39:14.940Z,7.60
2022-09-21T06:44:32.836Z,7.90
2022-09-21T06:46:59.408Z,8.10
2022-09-21T06:49:28.677Z,8.20
2022-09-21T06:51:55.876Z,8.20
2022-09-21T06:54:22.604Z,8.30
2022-09-21T06:56:49.286Z,8.40
2022-09-21T06:59:15.923Z,8.50
2022-09-21T07:01:42.612Z,8.60
2022-09-21T07:04:09.675Z,8.70
2022-09-21T07:06:36.399Z,8.70
2022-09-21T07:11:49.937Z,8.90
2022-09-21T07:14:16.691Z,9.00
2022-09-21T07:16:43.468Z,9.10
2022-09-21T07:19:11.385Z,9.20
2022-09-21T07:21:38.914Z,9.30
2022-09-21T07:24:11.087Z,9.40
2022-09-21T07:26:38.845Z,9.50
2022-09-21T07:29:05.591Z,9.60
2022-09-21T07:31:32.322Z,9.60
2022-09-21T07:33:59.271Z,9.60
2022-09-21T07:36:26.086Z,9.70
2022-09-21T07:38:54.032Z,9.70
2022-09-21T07:41:21.572Z,9.80
2022-09-21T07:43:48.205Z,9.90
2022-09-21T07:46:15.587Z,10.00
2022-09-21T07:48:42.610Z,10.10
2022-09-21T07:51:11.855Z,10.20
2022-09-21T07:53:40.440Z,10.30
2022-09-21T07:56:09.605Z,10.40
2022-09-21T07:58:56.147Z,10.50
2022-09-21T08:01:24.247Z,10.60
2022-09-21T08:03:52.142Z,10.70
2022-09-21T08:06:19.185Z,10.80
2022-09-21T08:08:47.989Z,10.90
2022-09-21T08:11:16.180Z,10.90
2022-09-21T08:13:42.956Z,11.10
2022-09-21T08:16:10.271Z,11.20
2022-09-21T08:18:39.661Z,11.30
2022-09-21T08:21:07.570Z,11.40
2022-09-21T08:23:34.926Z,11.50
2022-09-21T08:26:03.103Z,11.70
2022-09-21T08:28:31.145Z,11.80
2022-09-21T08:31:01.816Z,11.90
2022-09-21T08:33:29.777Z,12.00
2022-09-21T08:35:58.999Z,12.10
2022-09-21T08:38:26.459Z,12.20
2022-09-21T08:40:53.956Z,12.20
2022-09-21T08:43:29.754Z,12.40
2022-09-21T08:45:59.224Z,12.50
2022-09-21T08:48:36.467Z,12.60
2022-09-21T08:51:08.211Z,12.60
2022-09-21T08:53:39.245Z,12.70
2022-09-21T08:56:06.259Z,12.90
2022-09-21T08:58:33.154Z,12.80
2022-09-21T09:01:21.619Z,12.90
2022-09-21T09:04:23.537Z,13.00
2022-09-21T09:07:21.436Z,13.20
2022-09-21T09:10:01.463Z,13.30
2022-09-21T09:12:47.497Z,13.40
2022-09-21T09:15:21.604Z,13.40
2022-09-21T09:18:01.407Z,13.50
2022-09-21T09:21:01.097Z,13.70
2022-09-21T09:24:31.617Z,13.70
2022-09-21T09:27:18.467Z,13.90
2022-09-21T09:30:03.698Z,13.90
2022-09-21T09:32:54.831Z,14.00
2022-09-21T09:35:38.233Z,14.10
2022-09-21T09:38:44.761Z,14.00
2022-09-21T09:41:39.355Z,14.10
2022-09-21T09:44:28.198Z,14.10
2022-09-21T09:47:28.598Z,14.10
2022-09-21T09:50:03.256Z,14.10
2022-09-21T09:52:31.140Z,14.10
2022-09-21T09:55:00.051Z,14.20
2022-09-21T09:57:33.526Z,14.20
2022-09-21T10:00:04.783Z,14.20
2022-09-21T10:02:31.489Z,14.20
2022-09-21T10:05:06.640Z,14.20
2022-09-21T10:07:38.068Z,14.20
2022-09-21T10:10:35.669Z,14.30
2022-09-21T10:13:27.043Z,14.40
2022-09-21T10:16:00.132Z,14.50
2022-09-21T10:18:50.368Z,14.60
2022-09-21T10:21:21.423Z,14.70
2022-09-21T10:24:00.081Z,14.70
2022-09-21T10:26:36.673Z,14.90
2022-09-21T10:29:19.179Z,15.00
2022-09-21T10:32:03.502Z,15.00
2022-09-21T10:34:33.342Z,15.20
2022-09-21T10:37:02.810Z,15.30
2022-09-21T10:39:33.556Z,15.50
2022-09-21T10:42:05.762Z,15.70
2022-09-21T10:44:43.813Z,15.70
2022-09-21T10:47:34.115Z,15.60
2022-09-21T10:50:01.964Z,15.60
2022-09-21T10:52:39.479Z,15.40
2022-09-21T10:55:15.103Z,15.30
2022-09-21T10:57:42.849Z,15.50
2022-09-21T11:00:21.555Z,15.70
2022-09-21T11:02:48.629Z,16.00
2022-09-21T11:05:28.233Z,16.40
2022-09-21T11:08:15.930Z,16.70
2022-09-21T11:10:49.136Z,17.10
2022-09-21T11:13:30.651Z,17.20
2022-09-21T11:16:28.164Z,17.00
2022-09-21T11:19:23.250Z,17.20
2022-09-21T11:22:02.219Z,17.60
2022-09-21T11:24:52.320Z,17.60
2022-09-21T11:27:29.122Z,17.80
2022-09-21T11:30:05.640Z,18.00
2022-09-21T11:32:59.166Z,18.20
2022-09-21T11:35:34.665Z,17.80
2022-09-21T11:38:16.018Z,17.70
2022-09-21T11:40:50.225Z,17.50
2022-09-21T11:43:47.060Z,17.40
2022-09-21T11:46:35.614Z,17.20
2022-09-21T11:49:18.106Z,17.10
2022-09-21T11:52:21.282Z,17.10
2022-09-21T11:55:00.686Z,17.30
2022-09-21T11:57:35.539Z,17.70
2022-09-21T12:00:18.792Z,17.90
2022-09-21T12:03:07.440Z,17.90
2022-09-21T12:05:58.796Z,18.20
2022-09-21T12:08:53.899Z,18.20
2022-09-21T12:11:43.873Z,18.10
2022-09-21T12:14:22.624Z,18.10
2022-09-21T12:17:21.243Z,18.10
2022-09-21T12:20:03.109Z,18.00
2022-09-21T12:22:37.355Z,17.90
2022-09-21T12:25:32.463Z,18.10
2022-09-21T12:28:14.245Z,18.10
2022-09-21T12:30:47.128Z,18.40
2022-09-21T12:33:24.118Z,18.80
2022-09-21T12:36:05.882Z,19.10
2022-09-21T12:38:42.848Z,19.40
2022-09-21T12:41:30.396Z,19.60
2022-09-21T12:44:05.985Z,19.30
2022-09-21T12:46:37.998Z,18.80
2022-09-21T12:49:14.403Z,18.50
2022-09-21T12:51:52.198Z,18.40
2022-09-21T12:54:38.005Z,18.30
2022-09-21T12:57:45.573Z,18.40
2022-09-21T13:00:20.353Z,18.70
2022-09-21T13:02:57.399Z,18.70
2022-09-21T13:05:50.539Z,19.10
2022-09-21T13:08:25.363Z,19.60
2022-09-21T13:11:00.925Z,19.70
2022-09-21T13:13:30.317Z,20.00
2022-09-21T13:15:59.257Z,20.20
2022-09-21T13:18:36.338Z,20.10
2022-09-21T13:21:22.217Z,20.10
2022-09-21T13:24:26.491Z,20.20
2022-09-21T13:26:57.057Z,19.80
2022-09-21T13:29:23.705Z,19.30
2022-09-21T13:31:57.815Z,19.10
2022-09-21T13:34:28.285Z,19.40
2022-09-21T13:37:17.904Z,19.60
2022-09-21T13:40:02.308Z,19.80
2022-09-21T13:42:34.912Z,19.90
2022-09-21T13:45:18.726Z,20.10
2022-09-21T13:47:55.302Z,20.20
2022-09-21T13:50:24.381Z,20.40
2022-09-21T13:52:59.194Z,20.20
2022-09-21T13:55:35.740Z,19.80
2022-09-21T13:58:16.209Z,19.60
2022-09-21T14:00:55.692Z,19.70
2022-09-21T14:03:25.933Z,20.10
2022-09-21T14:06:00.698Z,20.40
2022-09-21T14:08:43.177Z,20.90
2022-09-21T14:11:29.645Z,21.00
2022-09-21T14:14:12.039Z,20.90
2022-09-21T14:16:39.851Z,20.90
2022-09-21T14:19:30.437Z,20.70
2022-09-21T14:22:06.398Z,20.50
2022-09-21T14:24:44.793Z,20.40
2022-09-21T14:27:26.703Z,20.30
2022-09-21T14:30:07.559Z,20.30
2022-09-21T14:32:41.985Z,20.80
2022-09-21T14:35:18.525Z,21.10
2022-09-21T14:38:01.183Z,21.10
2022-09-21T14:40:39.302Z,20.90
2022-09-21T14:43:15.635Z,20.50
2022-09-21T14:46:17.128Z,20.20
2022-09-21T14:49:19.421Z,20.10
2022-09-21T14:52:32.406Z,20.40
2022-09-21T14:55:24.851Z,20.60
2022-09-21T14:58:25.209Z,20.50
2022-09-21T15:00:53.259Z,20.60
2022-09-21T15:03:39.176Z,20.70
2022-09-21T15:06:41.000Z,20.70
2022-09-21T15:09:40.701Z,21.00
2022-09-21T15:12:19.646Z,21.10
2022-09-21T15:15:34.056Z,21.20
2022-09-21T15:18:01.952Z,21.20
2022-09-21T15:20:30.917Z,21.30
2022-09-21T15:22:58.805Z,21.20
2022-09-21T15:25:28.917Z,21.10
2022-09-21T15:27:55.900Z,20.90
2022-09-21T15:30:26.925Z,21.00
2022-09-21T15:33:03.152Z,20.80
2022-09-21T15:35:32.655Z,20.70
2022-09-21T15:38:01.312Z,20.50
2022-09-21T15:40:31.812Z,20.10
2022-09-21T15:43:04.393Z,20.00
2022-09-21T15:45:55.812Z,20.00
2022-09-21T15:48:23.457Z,19.60
2022-09-21T15:51:24.747Z,19.60
2022-09-21T15:53:58.381Z,19.50
2022-09-21T15:56:28.687Z,19.40
2022-09-21T15:59:08.533Z,19.50
2022-09-21T16:01:48.496Z,19.50
2022-09-21T16:04:22.082Z,19.50
2022-09-21T16:07:04.719Z,19.50
2022-09-21T16:09:45.590Z,19.50
2022-09-21T16:12:37.105Z,19.60
2022-09-21T16:15:07.087Z,19.30
2022-09-21T16:17:38.156Z,19.30
2022-09-21T16:20:21.653Z,19.20
2022-09-21T16:22:54.806Z,19.10
2022-09-21T16:25:27.289Z,18.90
2022-09-21T16:28:02.758Z,18.80
2022-09-21T16:31:00.336Z,18.60
2022-09-21T16:33:56.974Z,18.50
2022-09-21T16:36:26.401Z,18.50
2022-09-21T16:38:53.621Z,18.20
2022-09-21T16:41:22.033Z,18.10
2022-09-21T16:43:51.033Z,18.00
2022-09-21T16:46:18.780Z,17.80
2022-09-21T16:48:45.511Z,17.70
2022-09-21T16:51:14.158Z,17.60
2022-09-21T16:53:41.388Z,17.40
2022-09-21T16:56:15.282Z,17.20
2022-09-21T16:58:45.965Z,16.90
2022-09-21T17:01:15.737Z,16.70
2022-09-21T17:03:42.725Z,16.50
2022-09-21T17:06:18.377Z,16.20
2022-09-21T17:08:49.050Z,16.10
2022-09-21T17:11:20.097Z,16.00
2022-09-21T17:13:50.476Z,15.80
2022-09-21T17:16:18.300Z,15.70
2022-09-21T17:18:46.003Z,15.40
2022-09-21T17:21:13.120Z,15.30
2022-09-21T17:23:41.385Z,15.10
2022-09-21T17:26:19.221Z,14.90
2022-09-21T17:28:46.190Z,14.70
2022-09-21T17:31:14.908Z,14.50
2022-09-21T17:33:42.391Z,14.40
2022-09-21T17:36:13.753Z,14.20
2022-09-21T17:38:42.281Z,14.10
2022-09-21T17:41:25.559Z,14.00
2022-09-21T17:44:15.768Z,13.90
2022-09-21T17:46:58.328Z,13.80
2022-09-21T17:49:25.989Z,13.70
2022-09-21T17:52:11.639Z,13.50
2022-09-21T17:54:39.839Z,13.50
2022-09-21T17:57:29.496Z,13.30
2022-09-21T18:00:16.553Z,13.20
2022-09-21T18:02:43.515Z,13.10
2022-09-21T18:05:21.734Z,13.00
2022-09-21T18:07:49.724Z,12.90
2022-09-21T18:10:16.917Z,12.80
2022-09-21T18:13:07.263Z,12.70
2022-09-21T18:15:39.789Z,12.60
2022-09-21T18:18:39.651Z,12.50
2022-09-21T18:21:19.798Z,12.40
2022-09-21T18:24:14.802Z,12.20
2022-09-21T18:26:44.894Z,12.20
2022-09-21T18:29:41.189Z,12.00
2022-09-21T18:32:47.275Z,12.00
2022-09-21T18:35:41.718Z,11.90
2022-09-21T18:38:40.400Z,11.90
2022-09-21T18:41:40.948Z,11.80
2022-09-21T18:44:20.090Z,11.80
2022-09-21T18:46:56.132Z,11.80
2022-09-21T18:49:37.890Z,11.70
2022-09-21T18:52:11.984Z,11.60
2022-09-21T18:54:39.390Z,11.60
2022-09-21T18:57:12.373Z,11.50
2022-09-21T18:59:39.411Z,11.50
2022-09-21T19:02:18.943Z,11.40
2022-09-21T19:04:46.490Z,11.30
2022-09-21T19:07:23.636Z,11.30
2022-09-21T19:10:19.753Z,11.30
2022-09-21T19:12:51.948Z,11.30
2022-09-21T19:15:59.016Z,11.20
2022-09-21T19:18:54.189Z,11.10
2022-09-21T19:21:45.702Z,11.00
2022-09-21T19:24:21.583Z,11.00
2022-09-21T19:27:18.147Z,10.90
2022-09-21T19:30:11.777Z,10.80
2022-09-21T19:32:47.159Z,10.70
2022-09-21T19:35:23.771Z,10.70
2022-09-21T19:37:55.871Z,10.80
2022-09-21T19:40:25.749Z,11.00
2022-09-21T19:43:04.705Z,11.40
2022-09-21T19:45:47.334Z,11.60
2022-09-21T19:48:15.844Z,11.90
2022-09-21T19:50:54.633Z,11.90
2022-09-21T19:53:41.171Z,11.70
2022-09-21T19:56:34.450Z,11.40
2022-09-21T19:59:19.919Z,11.00
2022-09-21T20:01:56.515Z,10.80
2022-09-21T20:04:39.314Z,10.60
2022-09-21T20:07:18.852Z,10.40
2022-09-21T20:09:57.679Z,10.20
2022-09-21T20:12:42.060Z,10.10
2022-09-21T20:15:17.660Z,10.00
2022-09-21T20:18:01.628Z,10.00
2022-09-21T20:20:30.099Z,9.90
2022-09-21T20:22:57.141Z,9.80
2022-09-21T20:25:30.560Z,9.80
2022-09-21T20:27:57.886Z,9.70
2022-09-21T20:30:28.374Z,9.60
2022-09-21T20:32:59.140Z,9.60
2022-09-21T20:35:28.593Z,9.60
2022-09-21T20:37:59.889Z,9.60
2022-09-21T20:40:29.227Z,9.60
2022-09-21T20:42:58.330Z,9.70
2022-09-21T20:45:25.455Z,9.70
2022-09-21T20:47:53.563Z,9.70
2022-09-21T20:50:21.124Z,9.70
2022-09-21T20:52:48.263Z,9.70
2022-09-21T20:55:20.324Z,9.70
2022-09-21T20:57:47.127Z,9.70
2022-09-21T21:00:16.139Z,9.70
2022-09-21T21:02:43.321Z,9.70
2022-09-21T21:05:11.162Z,9.70
2022-09-21T21:07:37.929Z,9.80
2022-09-21T21:10:05.055Z,9.80
2022-09-21T21:12:32.423Z,9.70
2022-09-21T21:14:59.449Z,9.70
2022-09-21T21:17:26.221Z,9.80
2022-09-21T21:19:53.320Z,9.70
2022-09-21T21:22:19.929Z,9.70
2022-09-21T21:24:47.157Z,9.80
2022-09-21T21:27:17.388Z,9.80
2022-09-21T21:29:45.373Z,9.80
2022-09-21T21:32:14.328Z,9.80
2022-09-21T21:34:41.110Z,9.90
2022-09-21T21:37:07.831Z,9.90
2022-09-21T21:39:34.600Z,9.90
2022-09-21T21:42:01.687Z,9.90
2022-09-21T21:44:28.408Z,9.90
2022-09-21T21:47:05.987Z,9.90
2022-09-21T21:49:41.997Z,10.00
2022-09-21T21:52:09.099Z,10.00
2022-09-21T21:54:36.025Z,9.90
2022-09-21T21:57:03.079Z,9.90
2022-09-21T21:59:30.686Z,9.90
2022-09-21T22:01:57.349Z,9.90
2022-09-21T22:04:27.648Z,9.90
2022-09-21T22:06:54.584Z,10.00
2022-09-21T22:09:22.196Z,10.00
2022-09-21T22:11:49.091Z,9.90
2022-09-21T22:14:15.710Z,9.90
2022-09-21T22:16:42.431Z,9.90
2022-09-21T22:19:09.364Z,10.00
2022-09-21T22:21:41.637Z,9.90
2022-09-21T22:24:09.458Z,9.90
2022-09-21T22:26:38.869Z,9.90
2022-09-21T22:29:07.014Z,9.90
2022-09-21T22:31:36.949Z,9.90
2022-09-21T22:34:04.168Z,9.90
2022-09-21T22:36:34.239Z,9.80
2022-09-21T22:39:00.996Z,9.80
2022-09-21T22:41:32.298Z,9.80
2022-09-21T22:43:59.525Z,9.80
2022-09-21T22:46:27.867Z,9.70
2022-09-21T22:48:55.024Z,9.80
2022-09-21T22:51:22.497Z,9.80
2022-09-21T22:53:50.855Z,9.80
2022-09-21T22:56:20.765Z,9.70
2022-09-21T22:58:53.604Z,9.70
2022-09-21T23:01:26.613Z,9.70
2022-09-21T23:04:05.743Z,9.70
2022-09-21T23:06:35.060Z,9.60
2022-09-21T23:09:04.502Z,9.60
2022-09-21T23:11:34.498Z,9.60
2022-09-21T23:14:01.353Z,9.50
2022-09-21T23:16:29.346Z,9.50
2022-09-21T23:18:57.444Z,9.50
2022-09-21T23:21:26.193Z,9.50
2022-09-21T23:23:59.951Z,9.50
2022-09-21T23:26:30.099Z,9.50
2022-09-21T23:29:02.143Z,9.40
2022-09-21T23:31:30.351Z,9.40
2022-09-21T23:34:04.851Z,9.40
2022-09-21T23:36:32.142Z,9.50
2022-09-21T23:38:59.418Z,9.50
2022-09-21T23:41:27.637Z,9.40
2022-09-21T23:43:54.686Z,9.40
2022-09-21T23:46:24.522Z,9.40
2022-09-21T23:48:51.691Z,9.40
2022-09-21T23:51:19.101Z,9.40
2022-09-21T23:53:46.664Z,9.40
2022-09-21T23:56:16.246Z,9.40
2022-09-21T23:58:42.966Z,9.30
